Time;durP1;ratioP1;P1;durP2;ratioP2;P2;SDS_P1;SDS_P2;PMS_P1;PMS_P2;Temp;Humidity;BMP_temperature;BMP_pressure;BME280_temperature;BME280_humidity;BME280_pressure;Samples;Min_cycle;Max_cycle;Signal;HPM_P1;HPM_P2
2022/08/16 00:01:39;;;;;;;;;;;19.50;99.90;;;;;;5052664;28;19924;-83
2022/08/16 00:04:06;;;;;;;;;;;19.50;99.90;;;;;;5047207;28;20353;-83
2022/08/16 00:06:32;;;;;;;;;;;19.50;99.90;;;;;;5039343;28;19940;-83
2022/08/16 00:08:59;;;;;;;;;;;19.50;99.90;;;;;;5038350;28;19932;-83
2022/08/16 00:11:27;;;;;;;;;;;19.60;99.90;;;;;;5036896;28;19933;-83
2022/08/16 00:13:54;;;;;;;;;;;19.60;99.90;;;;;;5043673;28;19933;-83
2022/08/16 00:16:21;;;;;;;;;;;19.60;99.90;;;;;;5055424;28;20432;-83
2022/08/16 00:18:47;;;;;;;;;;;19.60;99.90;;;;;;5051533;28;19951;-83
2022/08/16 00:21:14;;;;;;;;;;;19.50;99.90;;;;;;5054890;28;19924;-85
2022/08/16 00:23:41;;;;;;;;;;;19.50;99.90;;;;;;5053078;28;19960;-83
2022/08/16 00:26:08;;;;;;;;;;;19.20;99.90;;;;;;5058341;28;19925;-83
2022/08/16 00:28:36;;;;;;;;;;;19.40;99.90;;;;;;5058484;28;19943;-81
2022/08/16 00:31:02;;;;;;;;;;;19.40;99.90;;;;;;5056919;28;19934;-82
2022/08/16 00:33:29;;;;;;;;;;;19.40;99.90;;;;;;5058182;28;19921;-81
2022/08/16 00:35:56;;;;;;;;;;;19.40;99.90;;;;;;5057962;28;19925;-82
2022/08/16 00:38:22;;;;;;;;;;;19.40;99.90;;;;;;5046315;28;19986;-82
2022/08/16 00:40:51;;;;;;;;;;;19.40;99.90;;;;;;5044628;28;19936;-83
2022/08/16 00:43:19;;;;;;;;;;;19.40;99.90;;;;;;5050654;28;19939;-82
2022/08/16 00:45:50;;;;;;;;;;;19.40;99.90;;;;;;5053899;28;20714;-82
2022/08/16 00:48:17;;;;;;;;;;;19.50;99.90;;;;;;5052316;28;20442;-82
2022/08/16 00:50:44;;;;;;;;;;;19.50;99.90;;;;;;5051864;28;19928;-81
2022/08/16 00:53:12;;;;;;;;;;;20.10;99.90;;;;;;5051261;28;19935;-82
2022/08/16 00:55:41;;;;;;;;;;;19.60;99.90;;;;;;5051299;28;19932;-82
2022/08/16 00:58:09;;;;;;;;;;;19.60;99.90;;;;;;5052441;28;20317;-82
2022/08/16 01:00:36;;;;;;;;;;;19.60;99.90;;;;;;5051751;28;19961;-82
2022/08/16 01:03:06;;;;;;;;;;;19.70;99.90;;;;;;5051133;28;19924;-82
2022/08/16 01:05:34;;;;;;;;;;;19.70;99.90;;;;;;5050292;28;19925;-82
2022/08/16 01:08:02;;;;;;;;;;;19.80;99.90;;;;;;5049452;28;19928;-82
2022/08/16 01:10:30;;;;;;;;;;;19.80;99.90;;;;;;5048663;28;19931;-82
2022/08/16 01:12:57;;;;;;;;;;;19.80;99.90;;;;;;5034460;28;19928;-82
2022/08/16 01:15:24;;;;;;;;;;;19.90;99.90;;;;;;5048306;28;19943;-83
2022/08/16 01:17:51;;;;;;;;;;;19.90;99.90;;;;;;5046330;28;20278;-82
2022/08/16 01:20:21;;;;;;;;;;;19.90;99.90;;;;;;5052311;28;19925;-83
2022/08/16 01:22:52;;;;;;;;;;;20.00;99.90;;;;;;5046444;28;19925;-82
2022/08/16 01:25:23;;;;;;;;;;;20.00;99.90;;;;;;5031492;28;19941;-82
2022/08/16 01:27:51;;;;;;;;;;;20.00;99.90;;;;;;5043957;28;19924;-83
2022/08/16 01:30:20;;;;;;;;;;;20.10;99.90;;;;;;5039996;28;19924;-83
2022/08/16 01:32:46;;;;;;;;;;;20.10;99.90;;;;;;5047246;28;20011;-82
2022/08/16 01:35:16;;;;;;;;;;;20.10;99.90;;;;;;5049094;28;19967;-83
2022/08/16 01:37:44;;;;;;;;;;;20.10;99.90;;;;;;5051612;28;20231;-83
2022/08/16 01:40:13;;;;;;;;;;;20.20;99.90;;;;;;5049764;28;19929;-83
2022/08/16 01:42:41;;;;;;;;;;;20.20;99.90;;;;;;5049814;28;19925;-83
2022/08/16 01:45:08;;;;;;;;;;;20.20;99.90;;;;;;5047280;28;19925;-83
2022/08/16 01:47:35;;;;;;;;;;;20.20;99.90;;;;;;5038479;28;19921;-82
2022/08/16 01:53:31;;;;;;;;;;;20.20;99.90;;;;;;5037007;28;20019;-84
2022/08/16 01:56:10;;;;;;;;;;;20.10;99.90;;;;;;5046461;28;19920;-85
2022/08/16 01:58:38;;;;;;;;;;;20.10;99.90;;;;;;5038109;28;19925;-84
2022/08/16 02:01:06;;;;;;;;;;;20.10;99.90;;;;;;5047987;28;19959;-85
2022/08/16 02:03:33;;;;;;;;;;;20.00;99.90;;;;;;5049152;28;19924;-85
2022/08/16 02:05:59;;;;;;;;;;;20.00;99.90;;;;;;5047764;28;19971;-85
2022/08/16 02:08:28;;;;;;;;;;;19.90;99.90;;;;;;5045729;28;19924;-85
2022/08/16 02:10:55;;;;;;;;;;;19.90;99.90;;;;;;5041020;28;19924;-83
2022/08/16 02:13:23;;;;;;;;;;;19.80;99.90;;;;;;5043599;28;19928;-83
2022/08/16 02:15:51;;;;;;;;;;;19.70;99.90;;;;;;5042359;28;20227;-83
2022/08/16 02:18:18;;;;;;;;;;;19.70;99.90;;;;;;5046763;28;20470;-84
2022/08/16 02:20:47;;;;;;;;;;;19.60;99.90;;;;;;5049126;28;19925;-84
2022/08/16 02:23:14;;;;;;;;;;;19.60;99.90;;;;;;5033395;28;19925;-84
2022/08/16 02:25:41;;;;;;;;;;;19.60;99.90;;;;;;5049871;28;19925;-83
2022/08/16 02:28:08;;;;;;;;;;;19.50;99.90;;;;;;5052447;28;19931;-83
2022/08/16 02:30:34;;;;;;;;;;;20.10;99.90;;;;;;5052745;28;19921;-83
2022/08/16 02:33:03;;;;;;;;;;;19.40;99.90;;;;;;5048728;28;19921;-83
2022/08/16 02:35:29;;;;;;;;;;;19.40;99.90;;;;;;5037004;28;20449;-83
2022/08/16 02:37:57;;;;;;;;;;;19.40;99.90;;;;;;5041802;28;19925;-82
2022/08/16 02:40:25;;;;;;;;;;;19.30;99.90;;;;;;5037359;28;19925;-84
2022/08/16 02:42:52;;;;;;;;;;;19.30;99.90;;;;;;5046884;28;20487;-84
2022/08/16 02:45:26;;;;;;;;;;;19.40;99.90;;;;;;5044542;28;19989;-84
2022/08/16 02:47:53;;;;;;;;;;;20.10;99.90;;;;;;5038927;28;20379;-84
2022/08/16 02:50:21;;;;;;;;;;;19.20;99.90;;;;;;5041861;28;19928;-84
2022/08/16 02:52:48;;;;;;;;;;;19.20;99.90;;;;;;5035602;28;19953;-84
2022/08/16 02:55:16;;;;;;;;;;;19.10;99.90;;;;;;5033238;28;19925;-84
2022/08/16 02:57:42;;;;;;;;;;;19.10;99.90;;;;;;5044203;28;19925;-83
2022/08/16 03:00:11;;;;;;;;;;;19.10;99.90;;;;;;5045692;28;19925;-83
2022/08/16 03:02:39;;;;;;;;;;;19.00;99.90;;;;;;5045711;28;19989;-84
2022/08/16 03:05:10;;;;;;;;;;;19.00;99.90;;;;;;5039199;28;19929;-84
2022/08/16 03:07:39;;;;;;;;;;;18.90;99.90;;;;;;5052460;28;20370;-84
2022/08/16 03:10:07;;;;;;;;;;;18.90;99.90;;;;;;5049897;28;20381;-85
2022/08/16 03:12:35;;;;;;;;;;;18.90;99.90;;;;;;5043704;28;19925;-85
2022/08/16 03:15:02;;;;;;;;;;;18.90;99.90;;;;;;5047545;28;19924;-85
2022/08/16 03:17:29;;;;;;;;;;;18.80;99.90;;;;;;5043683;28;20389;-85
2022/08/16 03:20:00;;;;;;;;;;;18.80;99.90;;;;;;5044942;28;19948;-84
2022/08/16 03:22:29;;;;;;;;;;;18.70;99.90;;;;;;5043270;28;20468;-84
2022/08/16 03:25:00;;;;;;;;;;;18.70;99.90;;;;;;5043928;28;19924;-84
2022/08/16 03:27:27;;;;;;;;;;;18.70;99.90;;;;;;5045802;28;20558;-85
2022/08/16 03:29:54;;;;;;;;;;;18.70;99.90;;;;;;5046323;28;19928;-84
2022/08/16 03:32:22;;;;;;;;;;;18.50;99.90;;;;;;5049477;28;19936;-85
2022/08/16 03:34:49;;;;;;;;;;;18.60;99.90;;;;;;5045895;28;19944;-84
2022/08/16 03:37:16;;;;;;;;;;;18.60;99.90;;;;;;5032174;28;19925;-84
2022/08/16 03:39:43;;;;;;;;;;;18.50;99.90;;;;;;5032699;28;19963;-85
2022/08/16 03:42:11;;;;;;;;;;;18.50;99.90;;;;;;5037335;28;19924;-84
2022/08/16 03:44:38;;;;;;;;;;;18.40;99.90;;;;;;5051256;28;19924;-84
2022/08/16 03:47:08;;;;;;;;;;;18.40;99.90;;;;;;5044366;28;19948;-83
2022/08/16 03:49:35;;;;;;;;;;;18.40;99.90;;;;;;5058459;28;20184;-83
2022/08/16 03:52:02;;;;;;;;;;;18.30;99.90;;;;;;5051682;28;19960;-83
2022/08/16 03:54:32;;;;;;;;;;;18.30;99.90;;;;;;5035568;28;19931;-83
2022/08/16 03:56:58;;;;;;;;;;;18.30;99.90;;;;;;5039800;28;19980;-83
2022/08/16 03:59:30;;;;;;;;;;;18.30;99.90;;;;;;5050926;28;19967;-83
2022/08/16 04:02:00;;;;;;;;;;;18.30;99.90;;;;;;5055270;28;19978;-83
2022/08/16 04:04:28;;;;;;;;;;;18.20;99.90;;;;;;5056335;28;19920;-83
2022/08/16 04:06:55;;;;;;;;;;;18.20;99.90;;;;;;5055427;28;19924;-83
2022/08/16 04:09:23;;;;;;;;;;;18.20;99.90;;;;;;5053937;28;20436;-83
2022/08/16 04:11:50;;;;;;;;;;;18.10;99.90;;;;;;5052409;28;19924;-88
2022/08/16 04:14:19;;;;;;;;;;;18.10;99.90;;;;;;5057633;28;19956;-83
2022/08/16 04:16:47;;;;;;;;;;;18.10;99.90;;;;;;5049144;28;20452;-84
2022/08/16 04:19:27;;;;;;;;;;;18.10;99.90;;;;;;5039024;28;20402;-85
2022/08/16 04:21:54;;;;;;;;;;;18.00;99.90;;;;;;5045305;28;19925;-89
2022/08/16 04:24:24;;;;;;;;;;;18.00;99.90;;;;;;5056747;28;20258;-90
2022/08/16 04:29:49;;;;;;;;;;;17.90;99.90;;;;;;5056014;28;19921;-90
2022/08/16 04:32:21;;;;;;;;;;;17.90;99.90;;;;;;5037407;28;19931;-89
2022/08/16 04:34:59;;;;;;;;;;;17.90;99.90;;;;;;5037921;28;20441;-90
2022/08/16 04:37:30;;;;;;;;;;;17.90;99.90;;;;;;5038112;28;19961;-89
2022/08/16 04:40:13;;;;;;;;;;;17.90;99.90;;;;;;5036305;28;20445;-89
2022/08/16 04:42:45;;;;;;;;;;;17.90;99.90;;;;;;5053663;28;19959;-91
2022/08/16 04:45:46;;;;;;;;;;;17.90;99.90;;;;;;5043640;28;20382;-91
2022/08/16 05:23:12;;;;;;;;;;;18.70;99.90;;;;;;5014531;23;19945;-82
2022/08/16 05:25:40;;;;;;;;;;;18.70;99.90;;;;;;5098580;28;19930;-82
2022/08/16 05:28:09;;;;;;;;;;;18.90;99.90;;;;;;5081864;28;20374;-82
2022/08/16 05:30:37;;;;;;;;;;;19.00;99.90;;;;;;5086549;28;19956;-82
2022/08/16 05:33:11;;;;;;;;;;;19.20;99.90;;;;;;5087223;28;19924;-81
2022/08/16 05:35:38;;;;;;;;;;;19.30;99.90;;;;;;5068544;28;19974;-80
2022/08/16 05:38:12;;;;;;;;;;;19.50;99.90;;;;;;5065332;28;19931;-79
2022/08/16 05:40:39;;;;;;;;;;;19.90;99.90;;;;;;5062602;28;19924;-80
2022/08/16 05:43:06;;;;;;;;;;;20.80;99.90;;;;;;5068119;28;20675;-80
2022/08/16 05:45:33;;;;;;;;;;;22.00;99.90;;;;;;5063618;28;20585;-78
2022/08/16 05:48:03;;;;;;;;;;;23.20;99.90;;;;;;5068700;28;19930;-79
2022/08/16 05:50:49;;;;;;;;;;;24.20;99.90;;;;;;5065106;28;19978;-79
2022/08/16 05:53:17;;;;;;;;;;;25.30;99.90;;;;;;5071974;28;19931;-79
2022/08/16 05:56:00;;;;;;;;;;;26.20;99.90;;;;;;5064339;28;19956;-79
2022/08/16 05:58:27;;;;;;;;;;;27.00;99.90;;;;;;5068834;28;20294;-79
2022/08/16 06:00:54;;;;;;;;;;;27.70;99.90;;;;;;5071356;28;20031;-79
2022/08/16 06:03:24;;;;;;;;;;;28.40;99.90;;;;;;5078540;28;19924;-79
2022/08/16 06:06:00;;;;;;;;;;;29.00;99.90;;;;;;5079802;28;19932;-80
2022/08/16 06:08:30;;;;;;;;;;;29.50;99.90;;;;;;5071708;28;19924;-79
2022/08/16 06:10:57;;;;;;;;;;;30.20;99.90;;;;;;5072742;28;19924;-79
2022/08/16 06:13:25;;;;;;;;;;;30.90;99.90;;;;;;5069083;28;19929;-79
2022/08/16 06:15:53;;;;;;;;;;;31.00;99.90;;;;;;5070770;28;20019;-80
2022/08/16 06:18:20;;;;;;;;;;;31.60;99.90;;;;;;5077541;28;19924;-80
2022/08/16 06:20:48;;;;;;;;;;;31.90;99.90;;;;;;5067012;28;20442;-83
2022/08/16 06:23:19;;;;;;;;;;;32.30;99.90;;;;;;5077265;28;20300;-83
2022/08/16 06:26:00;;;;;;;;;;;32.30;99.90;;;;;;5074251;28;19924;-83
2022/08/16 06:28:32;;;;;;;;;;;32.50;99.90;;;;;;5074154;28;19921;-83
2022/08/16 06:30:59;;;;;;;;;;;;;;;;;;5070793;28;19933;-84
2022/08/16 06:33:27;;;;;;;;;;;32.70;99.90;;;;;;5069619;28;20284;-84
2022/08/16 06:35:56;;;;;;;;;;;33.20;99.90;;;;;;5073307;28;19925;-81
2022/08/16 06:38:24;;;;;;;;;;;;;;;;;;5060690;28;20345;-81
2022/08/16 06:40:55;;;;;;;;;;;33.60;99.90;;;;;;5072310;28;19920;-80
2022/08/16 06:43:30;;;;;;;;;;;33.70;99.90;;;;;;5073918;28;19993;-82
2022/08/16 06:46:09;;;;;;;;;;;33.90;99.90;;;;;;5080702;28;19925;-82
2022/08/16 06:48:39;;;;;;;;;;;34.20;98.70;;;;;;5058958;28;19920;-82
2022/08/16 06:51:07;;;;;;;;;;;35.00;96.60;;;;;;5068406;28;19963;-82
2022/08/16 06:53:35;;;;;;;;;;;35.10;96.00;;;;;;5068664;28;19960;-82
2022/08/16 06:56:05;;;;;;;;;;;35.40;95.10;;;;;;5072863;28;20417;-82
2022/08/16 06:58:50;;;;;;;;;;;35.70;94.70;;;;;;5076982;28;19915;-82
2022/08/16 07:01:29;;;;;;;;;;;36.00;93.40;;;;;;5093189;28;19956;-82
2022/08/16 07:03:57;;;;;;;;;;;36.00;92.30;;;;;;5072454;28;19925;-82
2022/08/16 07:06:31;;;;;;;;;;;36.10;91.30;;;;;;5074877;28;19909;-83
2022/08/16 07:09:00;;;;;;;;;;;36.30;91.00;;;;;;5076416;28;19921;-81
2022/08/16 07:11:31;;;;;;;;;;;36.20;90.50;;;;;;5074955;28;19924;-81
2022/08/16 07:13:59;;;;;;;;;;;36.20;90.10;;;;;;5069572;28;20292;-82
2022/08/16 07:16:31;;;;;;;;;;;36.30;88.90;;;;;;5089703;28;19924;-81
2022/08/16 07:18:58;;;;;;;;;;;36.40;88.70;;;;;;5075696;28;19924;-81
2022/08/16 07:21:27;;;;;;;;;;;36.60;86.60;;;;;;5070756;28;19924;-81
2022/08/16 07:23:53;;;;;;;;;;;36.80;86.20;;;;;;5070944;28;20182;-80
2022/08/16 07:26:22;;;;;;;;;;;36.80;84.30;;;;;;5075543;28;19924;-81
2022/08/16 07:28:50;;;;;;;;;;;36.60;83.40;;;;;;5077143;28;20379;-81
2022/08/16 07:31:19;;;;;;;;;;;36.30;83.70;;;;;;5074179;28;19931;-81
2022/08/16 07:33:48;;;;;;;;;;;36.40;82.60;;;;;;5075602;28;20277;-81
2022/08/16 07:36:17;;;;;;;;;;;36.50;82.80;;;;;;5076344;28;20366;-81
2022/08/16 07:38:46;;;;;;;;;;;36.40;80.90;;;;;;5076174;28;20360;-81
2022/08/16 07:41:15;;;;;;;;;;;36.50;81.90;;;;;;5075699;28;19928;-81
2022/08/16 07:43:46;;;;;;;;;;;36.50;80.70;;;;;;5075847;28;19920;-80
2022/08/16 07:46:14;;;;;;;;;;;36.40;80.80;;;;;;5075031;28;19928;-80
2022/08/16 07:48:43;;;;;;;;;;;36.40;79.80;;;;;;5076517;28;19946;-80
2022/08/16 07:51:10;;;;;;;;;;;36.20;79.60;;;;;;5073522;28;20387;-80
2022/08/16 07:53:40;;;;;;;;;;;36.20;79.20;;;;;;5069917;28;19931;-80
2022/08/16 07:56:07;;;;;;;;;;;35.80;80.70;;;;;;5075975;28;19999;-80
2022/08/16 07:58:38;;;;;;;;;;;35.90;79.80;;;;;;5072036;28;19924;-81
2022/08/16 08:01:12;;;;;;;;;;;35.60;79.70;;;;;;5066664;28;19924;-81
2022/08/16 08:03:43;;;;;;;;;;;35.60;79.30;;;;;;5071719;28;19924;-81
2022/08/16 08:06:12;;;;;;;;;;;35.50;80.40;;;;;;5071896;28;19924;-82
2022/08/16 08:08:39;;;;;;;;;;;35.40;79.60;;;;;;5074988;28;19920;-80
2022/08/16 08:11:06;;;;;;;;;;;35.40;79.60;;;;;;5066710;28;20488;-81
2022/08/16 08:13:33;;;;;;;;;;;35.40;79.70;;;;;;5068583;28;19928;-81
2022/08/16 08:16:01;;;;;;;;;;;35.50;79.40;;;;;;5063164;28;19932;-81
2022/08/16 08:18:28;;;;;;;;;;;35.50;78.40;;;;;;5073620;28;19974;-81
2022/08/16 08:20:58;;;;;;;;;;;35.50;78.70;;;;;;5072734;28;19970;-81
2022/08/16 08:23:26;;;;;;;;;;;35.70;78.30;;;;;;5059560;28;19930;-82
2022/08/16 08:25:53;;;;;;;;;;;35.80;77.70;;;;;;5072023;28;19924;-82
2022/08/16 08:28:21;;;;;;;;;;;35.90;77.90;;;;;;5073432;28;19924;-82
2022/08/16 08:30:49;;;;;;;;;;;35.80;77.40;;;;;;5067219;28;19995;-83
2022/08/16 08:33:17;;;;;;;;;;;35.80;77.40;;;;;;5073443;28;19974;-81
2022/08/16 08:35:45;;;;;;;;;;;35.80;77.30;;;;;;5074153;28;20123;-81
2022/08/16 08:38:15;;;;;;;;;;;35.80;77.10;;;;;;5067179;28;19924;-83
2022/08/16 08:40:45;;;;;;;;;;;35.90;77.10;;;;;;5071859;28;20373;-82
2022/08/16 08:43:12;;;;;;;;;;;35.90;77.10;;;;;;5073551;28;20031;-82
2022/08/16 08:45:45;;;;;;;;;;;35.80;75.70;;;;;;5070935;28;19928;-81
2022/08/16 08:48:12;;;;;;;;;;;35.30;75.80;;;;;;5062819;28;19924;-81
2022/08/16 08:50:41;;;;;;;;;;;34.90;76.80;;;;;;5074918;28;19964;-80
2022/08/16 08:53:09;;;;;;;;;;;34.60;77.60;;;;;;5064542;28;19924;-81
2022/08/16 08:55:37;;;;;;;;;;;34.50;77.80;;;;;;5065444;28;19924;-81
2022/08/16 08:58:05;;;;;;;;;;;34.30;77.70;;;;;;5052984;28;19935;-81
2022/08/16 09:00:56;;;;;;;;;;;34.10;78.70;;;;;;5068658;28;19974;-80
2022/08/16 09:03:23;;;;;;;;;;;34.00;79.10;;;;;;5064396;28;20261;-80
2022/08/16 09:05:50;;;;;;;;;;;34.00;79.00;;;;;;5067769;28;19921;-79
2022/08/16 09:08:18;;;;;;;;;;;34.00;79.10;;;;;;5074942;28;19931;-80
2022/08/16 09:10:59;;;;;;;;;;;34.10;78.90;;;;;;5070909;28;20383;-80
2022/08/16 09:13:27;;;;;;;;;;;34.00;78.90;;;;;;5068856;28;19920;-80
2022/08/16 09:15:55;;;;;;;;;;;33.90;78.10;;;;;;5074052;28;19924;-80
2022/08/16 09:18:28;;;;;;;;;;;33.70;78.80;;;;;;5071635;28;20396;-80
2022/08/16 09:20:55;;;;;;;;;;;33.50;79.40;;;;;;5068960;28;19924;-80
2022/08/16 09:23:24;;;;;;;;;;;33.40;79.40;;;;;;5063766;28;20280;-79
2022/08/16 09:25:51;;;;;;;;;;;33.40;79.70;;;;;;5067813;28;19956;-80
2022/08/16 09:28:20;;;;;;;;;;;33.40;79.10;;;;;;5067355;28;19932;-81
2022/08/16 09:30:52;;;;;;;;;;;33.30;79.70;;;;;;5070793;28;19948;-80
2022/08/16 09:33:19;;;;;;;;;;;33.30;80.10;;;;;;5071996;28;19924;-82
2022/08/16 09:35:48;;;;;;;;;;;33.40;79.80;;;;;;5068565;28;19956;-81
2022/08/16 09:38:15;;;;;;;;;;;33.40;79.20;;;;;;5074796;28;19950;-81
2022/08/16 09:40:43;;;;;;;;;;;33.30;79.20;;;;;;5078822;28;19924;-81
2022/08/16 09:43:10;;;;;;;;;;;33.20;79.30;;;;;;5078313;28;19960;-81
2022/08/16 09:45:41;;;;;;;;;;;33.00;79.10;;;;;;5064066;28;20152;-80
2022/08/16 09:48:09;;;;;;;;;;;32.80;79.50;;;;;;5077922;28;19967;-81
2022/08/16 09:50:36;;;;;;;;;;;32.60;79.50;;;;;;5075448;28;20500;-82
2022/08/16 09:53:04;;;;;;;;;;;32.30;79.10;;;;;;5073694;28;19963;-82
2022/08/16 09:55:31;;;;;;;;;;;31.90;79.50;;;;;;5071473;28;19924;-82
2022/08/16 09:57:58;;;;;;;;;;;31.50;80.40;;;;;;5075242;28;19987;-82
2022/08/16 10:00:26;;;;;;;;;;;31.20;80.90;;;;;;5074307;28;20616;-82
2022/08/16 10:02:54;;;;;;;;;;;30.90;81.40;;;;;;5072936;28;19920;-81
2022/08/16 10:05:21;;;;;;;;;;;30.70;81.70;;;;;;5072255;28;19951;-82
2022/08/16 10:07:51;;;;;;;;;;;30.60;82.30;;;;;;5073839;28;19971;-82
2022/08/16 10:10:19;;;;;;;;;;;30.50;82.60;;;;;;5074655;28;19990;-82
2022/08/16 10:15:33;;;;;;;;;;;30.20;82.80;;;;;;5071497;28;19928;-81
2022/08/16 10:18:06;;;;;;;;;;;30.00;83.40;;;;;;5073199;28;20295;-82
2022/08/16 10:20:34;;;;;;;;;;;29.90;83.80;;;;;;5068085;28;19924;-82
2022/08/16 10:23:01;;;;;;;;;;;29.80;83.60;;;;;;5068457;28;19924;-82
2022/08/16 10:25:28;;;;;;;;;;;29.80;84.20;;;;;;5066677;28;19924;-82
2022/08/16 10:27:55;;;;;;;;;;;29.80;84.60;;;;;;5073270;28;19928;-82
2022/08/16 10:30:25;;;;;;;;;;;30.40;85.30;;;;;;5086307;28;19932;-82
2022/08/16 10:32:52;;;;;;;;;;;29.70;84.40;;;;;;5069757;28;19942;-82
2022/08/16 10:35:21;;;;;;;;;;;29.80;85.80;;;;;;5070071;28;19948;-80
2022/08/16 10:37:48;;;;;;;;;;;29.80;85.20;;;;;;5059979;28;19982;-80
2022/08/16 10:40:15;;;;;;;;;;;29.80;85.30;;;;;;5083729;28;20029;-81
2022/08/16 10:42:43;;;;;;;;;;;29.90;85.00;;;;;;5085493;28;20731;-79
2022/08/16 10:45:10;;;;;;;;;;;30.00;84.90;;;;;;5068436;28;20368;-81
2022/08/16 10:47:39;;;;;;;;;;;30.00;84.90;;;;;;5077323;28;19924;-81
2022/08/16 10:50:07;;;;;;;;;;;30.10;84.60;;;;;;5076878;28;19920;-81
2022/08/16 10:52:36;;;;;;;;;;;29.40;83.80;;;;;;5073570;28;19955;-80
2022/08/16 10:55:04;;;;;;;;;;;30.20;83.90;;;;;;5073623;28;19931;-81
2022/08/16 10:57:31;;;;;;;;;;;30.30;84.10;;;;;;5056120;28;19921;-82
2022/08/16 10:59:58;;;;;;;;;;;30.30;84.20;;;;;;5073760;28;19920;-80
2022/08/16 11:02:27;;;;;;;;;;;30.40;84.20;;;;;;5062398;28;20427;-80
2022/08/16 11:04:55;;;;;;;;;;;30.80;83.80;;;;;;5060309;28;19935;-80
2022/08/16 11:07:22;;;;;;;;;;;30.60;83.70;;;;;;5072835;28;19920;-81
2022/08/16 11:09:51;;;;;;;;;;;30.70;83.80;;;;;;5073265;28;19932;-81
2022/08/16 11:12:18;;;;;;;;;;;30.70;83.50;;;;;;5071505;28;20299;-80
2022/08/16 11:14:45;;;;;;;;;;;30.90;83.00;;;;;;5072323;28;19970;-80
2022/08/16 11:17:14;;;;;;;;;;;31.00;82.20;;;;;;5058587;28;20011;-78
2022/08/16 11:19:41;;;;;;;;;;;31.10;81.60;;;;;;5058609;28;19925;-77
2022/08/16 11:22:08;;;;;;;;;;;31.20;80.80;;;;;;5065077;28;19921;-77
2022/08/16 11:24:39;;;;;;;;;;;31.30;81.10;;;;;;5060099;28;20558;-78
2022/08/16 11:27:08;;;;;;;;;;;31.40;81.30;;;;;;5057027;28;19931;-78
2022/08/16 11:29:35;;;;;;;;;;;31.50;81.10;;;;;;5047260;28;19943;-78
2022/08/16 11:32:04;;;;;;;;;;;31.70;80.30;;;;;;5050190;28;20053;-78
2022/08/16 11:34:31;;;;;;;;;;;31.80;79.90;;;;;;5052059;28;20010;-77
2022/08/16 11:36:59;;;;;;;;;;;31.90;78.90;;;;;;5049051;28;20400;-78
2022/08/16 11:39:26;;;;;;;;;;;32.00;78.10;;;;;;5050541;28;20347;-76
2022/08/16 11:41:52;;;;;;;;;;;32.00;77.70;;;;;;5050759;28;19921;-76
2022/08/16 11:44:21;;;;;;;;;;;32.10;77.90;;;;;;5050793;28;20672;-78
2022/08/16 11:46:48;;;;;;;;;;;32.20;77.70;;;;;;5066079;28;19925;-76
2022/08/16 11:49:15;;;;;;;;;;;32.40;77.40;;;;;;5050635;28;20046;-78
2022/08/16 11:51:43;;;;;;;;;;;32.60;77.40;;;;;;5050053;28;19931;-78
2022/08/16 11:54:10;;;;;;;;;;;32.60;77.10;;;;;;5050736;28;19925;-80
2022/08/16 11:56:37;;;;;;;;;;;32.80;76.20;;;;;;5054258;28;19925;-81
2022/08/16 11:59:04;;;;;;;;;;;32.90;76.00;;;;;;5069648;28;19943;-80
2022/08/16 12:01:33;;;;;;;;;;;32.90;75.00;;;;;;5059334;28;19951;-79
2022/08/16 12:03:59;;;;;;;;;;;32.90;74.80;;;;;;5088613;28;19967;-80
2022/08/16 12:06:27;;;;;;;;;;;33.10;74.80;;;;;;5071383;28;19936;-81
2022/08/16 12:08:56;;;;;;;;;;;33.30;74.70;;;;;;5070614;28;19971;-81
2022/08/16 12:11:25;;;;;;;;;;;33.50;73.90;;;;;;5062007;28;20022;-77
2022/08/16 12:13:53;;;;;;;;;;;33.70;73.30;;;;;;5067976;28;19974;-77
2022/08/16 12:16:21;;;;;;;;;;;33.80;71.90;;;;;;5068542;28;19924;-77
2022/08/16 12:18:50;;;;;;;;;;;33.90;71.90;;;;;;5064461;28;19928;-76
2022/08/16 12:21:18;;;;;;;;;;;33.90;72.50;;;;;;5063912;28;19928;-77
2022/08/16 12:23:47;;;;;;;;;;;33.90;72.10;;;;;;5058786;28;19929;-77
2022/08/16 12:26:14;;;;;;;;;;;34.00;71.80;;;;;;5068874;28;19931;-77
2022/08/16 12:28:41;;;;;;;;;;;33.90;70.90;;;;;;5069593;28;19932;-77
2022/08/16 12:31:08;;;;;;;;;;;33.30;70.60;;;;;;5068722;28;19974;-77
2022/08/16 12:33:35;;;;;;;;;;;33.00;70.90;;;;;;5060935;28;19947;-77
2022/08/16 12:36:03;;;;;;;;;;;33.00;71.30;;;;;;5066919;28;19921;-77
2022/08/16 12:38:30;;;;;;;;;;;32.60;72.10;;;;;;5064201;28;20675;-78
2022/08/16 12:40:57;;;;;;;;;;;31.40;72.10;;;;;;5070107;28;19985;-78
2022/08/16 12:43:24;;;;;;;;;;;31.90;73.40;;;;;;5066493;28;20597;-78
2022/08/16 12:45:52;;;;;;;;;;;31.40;73.90;;;;;;5072098;28;19946;-77
2022/08/16 12:51:09;;;;;;;;;;;30.70;74.90;;;;;;5074034;28;19942;-78
2022/08/16 12:53:36;;;;;;;;;;;30.70;74.90;;;;;;5066743;28;19924;-78
2022/08/16 12:56:03;;;;;;;;;;;30.50;76.00;;;;;;5069336;28;20062;-78
2022/08/16 12:58:31;;;;;;;;;;;30.30;76.00;;;;;;5081151;28;19920;-78
2022/08/16 13:00:58;;;;;;;;;;;30.10;76.60;;;;;;5071902;28;19924;-78
2022/08/16 13:03:27;;;;;;;;;;;30.10;76.40;;;;;;5071913;28;20004;-78
2022/08/16 13:05:54;;;;;;;;;;;30.20;77.30;;;;;;5071007;28;19963;-78
2022/08/16 13:08:24;;;;;;;;;;;30.30;76.90;;;;;;5074574;28;20529;-79
2022/08/16 13:10:53;;;;;;;;;;;30.50;76.90;;;;;;5071774;28;20299;-78
2022/08/16 13:13:24;;;;;;;;;;;30.60;77.00;;;;;;5071369;28;19925;-78
2022/08/16 13:15:52;;;;;;;;;;;30.80;76.30;;;;;;5067118;28;19927;-79
2022/08/16 13:18:20;;;;;;;;;;;31.10;76.10;;;;;;5073668;28;19966;-78
2022/08/16 13:20:47;;;;;;;;;;;31.70;75.80;;;;;;5059239;28;19935;-77
2022/08/16 13:23:14;;;;;;;;;;;32.00;74.20;;;;;;5067861;28;19963;-77
2022/08/16 13:25:43;;;;;;;;;;;32.20;74.10;;;;;;5065365;28;19921;-78
2022/08/16 13:28:11;;;;;;;;;;;32.40;74.40;;;;;;5063435;28;19930;-77
2022/08/16 13:30:40;;;;;;;;;;;32.50;73.50;;;;;;5069257;28;19967;-77
2022/08/16 13:33:08;;;;;;;;;;;32.50;72.60;;;;;;5069627;28;20701;-77
2022/08/16 13:35:38;;;;;;;;;;;32.40;72.80;;;;;;5068058;28;19929;-77
2022/08/16 13:38:05;;;;;;;;;;;32.20;72.50;;;;;;5070604;28;19928;-77
2022/08/16 13:40:33;;;;;;;;;;;32.00;73.00;;;;;;5065549;28;20399;-77
2022/08/16 13:43:02;;;;;;;;;;;31.70;72.70;;;;;;5071323;28;19925;-77
2022/08/16 13:45:29;;;;;;;;;;;31.50;73.40;;;;;;5051996;28;19931;-78
2022/08/16 13:47:56;;;;;;;;;;;31.20;73.50;;;;;;5070725;28;19931;-77
2022/08/16 13:50:24;;;;;;;;;;;31.10;74.10;;;;;;5059348;28;19920;-77
2022/08/16 13:52:51;;;;;;;;;;;31.10;74.60;;;;;;5070098;28;19928;-76
2022/08/16 13:55:18;;;;;;;;;;;31.20;74.60;;;;;;5065934;28;19924;-77
2022/08/16 13:57:48;;;;;;;;;;;31.40;74.40;;;;;;5061557;28;19925;-77
2022/08/16 14:00:19;;;;;;;;;;;31.70;74.70;;;;;;5076426;28;19925;-77
2022/08/16 14:02:46;;;;;;;;;;;32.20;74.40;;;;;;5067209;28;19924;-77
2022/08/16 14:05:15;;;;;;;;;;;32.50;72.80;;;;;;5067732;28;19951;-77
2022/08/16 14:07:43;;;;;;;;;;;32.50;72.10;;;;;;5068284;28;19935;-77
2022/08/16 14:10:12;;;;;;;;;;;32.60;72.40;;;;;;5070990;28;19931;-76
2022/08/16 14:12:40;;;;;;;;;;;32.70;72.20;;;;;;5068885;28;19931;-76
2022/08/16 14:15:08;;;;;;;;;;;32.50;71.20;;;;;;5064538;28;19986;-80
2022/08/16 14:17:37;;;;;;;;;;;32.50;71.30;;;;;;5072121;28;19924;-78
2022/08/16 14:20:06;;;;;;;;;;;32.20;71.30;;;;;;5070256;28;20001;-76
2022/08/16 14:22:36;;;;;;;;;;;31.80;71.30;;;;;;5074929;28;19920;-76
2022/08/16 14:25:07;;;;;;;;;;;31.50;71.80;;;;;;5067443;28;19931;-77
2022/08/16 14:27:34;;;;;;;;;;;31.20;73.20;;;;;;5074316;28;19931;-78
2022/08/16 14:30:02;;;;;;;;;;;31.00;72.60;;;;;;5072147;28;20030;-78
2022/08/16 14:32:30;;;;;;;;;;;31.00;73.10;;;;;;5067300;28;20032;-76
2022/08/16 14:34:59;;;;;;;;;;;31.10;73.40;;;;;;5069762;28;19931;-77
2022/08/16 14:37:26;;;;;;;;;;;31.40;73.70;;;;;;5070930;28;19952;-78
2022/08/16 14:39:53;;;;;;;;;;;32.00;73.60;;;;;;5074282;28;20378;-78
2022/08/16 14:42:22;;;;;;;;;;;32.50;72.60;;;;;;5070560;28;19936;-78
2022/08/16 14:44:49;;;;;;;;;;;32.80;71.70;;;;;;5071173;28;19930;-78
2022/08/16 14:47:17;;;;;;;;;;;33.00;71.60;;;;;;5074253;28;19935;-78
2022/08/16 14:49:44;;;;;;;;;;;33.10;70.30;;;;;;5070195;28;19924;-77
2022/08/16 14:52:14;;;;;;;;;;;33.10;70.10;;;;;;5073874;28;19925;-77
2022/08/16 14:54:41;;;;;;;;;;;32.90;69.90;;;;;;5076161;28;19924;-78
2022/08/16 14:57:09;;;;;;;;;;;32.60;69.80;;;;;;5074738;28;19931;-78
2022/08/16 14:59:36;;;;;;;;;;;32.30;69.80;;;;;;5075158;28;19929;-78
2022/08/16 15:02:03;;;;;;;;;;;32.00;70.30;;;;;;5077350;28;19928;-78
2022/08/16 15:04:31;;;;;;;;;;;31.80;70.70;;;;;;5072352;28;19959;-78
2022/08/16 15:06:59;;;;;;;;;;;31.70;70.60;;;;;;5069189;28;19925;-78
2022/08/16 15:09:27;;;;;;;;;;;31.60;71.00;;;;;;5075938;28;19924;-80
2022/08/16 15:11:54;;;;;;;;;;;31.50;71.10;;;;;;5080860;28;19932;-79
2022/08/16 15:14:21;;;;;;;;;;;31.60;71.20;;;;;;5070547;28;19924;-78